Main page
METAR-TAF:

METAR-TAF

Airports :

Yekaterinburg, Russia

Koltsovo Airport

latitude: 56-50N, longitude: 060-38E, elevation: 237 m

Current weather observation

The report was made 28 minutes ago, at 04:30 UTC
Wind 8 kt from the South/Southeast
Temperature 21°C
Humidity 73%
Pressure 1011 hPa
Visibility 10 km or more
no clouds below 1500 m and no cumulonimbus

METAR: USSS 220430Z 15004MPS CAVOK 21/16 Q1011 R08L/010060 NOSIG RMK QFE738/0985

Time: 09:58 (04:58 UTC)

Forecast

The report was made 3 hours and 2 minutes ago, at 01:56 UTC
Forecast valid from 22 at 03 UTC to 23 at 03 UTC
Wind 6 kt from the South/Southeast
Visibility 10 km or more
Broken clouds at a height of 2000 ft, Cumulonimbus.
Temporary
from 22 at 03 UTC to 22 at 18 UTC
Wind 39 kt from variable directions
thunderstorm, light rain, hail, squalls

TAF: USSS 220156Z 2203/2303 15003MPS 9999 BKN020CB TEMPO 2203/2218 VRB20MPS -TSRAGR SQ

Weather observations and forecasts of more than 4000 airports (METAR and TAF reports).

The available stations are represented by yellow and red dots on the map.

Hover mouse over dot to see the name of the station.

Then click to see weather observations and forecasts.

To change the map : click on the green buttons with a black cross to zoom in, on the green button with a dash to zoom out, or on the green arrows for adjacent maps.


METAR-TAF: